ANDO2: Washita River, OK

Data processed at Sun May 29 23:36:51 2016 Central Daylight Time


All information presented herein is the property of the government of the United States of America and may be revised or deleted at any time without prior notice.
Dissemination of this information without the expressed written consent of the Public Affairs Office, Tulsa District U.S. Army Corps of Engineers is strictly prohibited.
These data are gathered electronically and, as presented, have not undergone any form of quality control. These data are not guaranteed to be valid or correct.
Go to home page.
Go to station list.
Go to station map.

Upstream stations:

Downstream station: Previous Day
Next Day
Current Day

Display graphics.
Display DCP transmissions.


    
    SHEF ID:       ANDO2     Washita River, OK
    STATION TYPE:  STREAM GAGE
    Regulation Limits:  Stage =   19.00, Flow =    6638
    
                   PRECIP PRECIP(2)     STAGE  RIV-FLOW   VOLTAGE
                   INCHES    INCHES      FEET       CFS     VOLTS
                     GOES      GOES      GOES      GOES      GOES
       (Cen)
    05/29 01:00      0.00      0.0010000016.0      ----     12.65
    05/29 02:00      0.00      0.00      7.49       292     12.65
    05/29 03:00      0.00      0.00      7.49       292     12.65
    05/29 04:00      0.00      0.00      7.50       297     12.65
    05/29 05:00      0.00      0.00      7.51       302     12.65
    05/29 06:00      0.00      0.00      7.49       292     12.65
    05/29 07:00      0.00      0.00      7.46       278     12.57
    05/29 08:00      0.00      0.00      7.48       287     13.05
    05/29 09:00      0.00      0.00      7.48       287     13.44
    05/29 10:00      0.00      0.00      7.50       297     14.16
    05/29 11:00      0.00      0.00      7.49       292     13.84
    05/29 12:00      0.00      0.00      7.50       297     13.60
    05/29 13:00      0.00      0.00      7.49       292     13.60
    05/29 14:00      0.00      0.00      7.49       292     13.60
    05/29 15:00      0.00      0.00      7.45       273     13.92
    05/29 16:00      0.00      0.00      7.48       287     14.24
    05/29 17:00      0.00      0.00      7.49       292     13.60
    05/29 18:00      0.00      0.00      7.48       287     13.29
    05/29 19:00      0.00      0.00      7.47       282     13.13
    05/29 20:00      0.00      0.00      7.45       273     12.81
    05/29 21:00      0.00      0.00      7.43       264     12.73
    05/29 22:00      0.00      0.00      7.45       273     12.73
    05/29 23:00      0.00      0.00      7.39       246     12.65
    05/30 00:00      ----      ----      ----      ----      ----